sensor_id;sensor_type;location;lat;lon;timestamp;temperature;humidity
2721;DHT22;1368;49.484;11.112;2023-02-01T00:01:34;5.30;99.90
2721;DHT22;1368;49.484;11.112;2023-02-01T00:04:00;5.50;99.90
2721;DHT22;1368;49.484;11.112;2023-02-01T00:06:25;5.40;99.90
2721;DHT22;1368;49.484;11.112;2023-02-01T00:08:55;5.30;99.90
2721;DHT22;1368;49.484;11.112;2023-02-01T00:11:21;5.30;99.90
2721;DHT22;1368;49.484;11.112;2023-02-01T00:13:47;5.20;99.90
2721;DHT22;1368;49.484;11.112;2023-02-01T00:16:19;5.20;99.90
2721;DHT22;1368;49.484;11.112;2023-02-01T00:18:45;5.20;99.90
2721;DHT22;1368;49.484;11.112;2023-02-01T00:21:15;5.10;99.90
2721;DHT22;1368;49.484;11.112;2023-02-01T00:23:41;5.10;99.90
2721;DHT22;1368;49.484;11.112;2023-02-01T00:26:16;5.10;99.90
2721;DHT22;1368;49.484;11.112;2023-02-01T00:28:42;5.00;99.90
2721;DHT22;1368;49.484;11.112;2023-02-01T00:31:07;5.00;99.90
2721;DHT22;1368;49.484;11.112;2023-02-01T00:33:33;5.30;99.90
2721;DHT22;1368;49.484;11.112;2023-02-01T00:36:01;5.20;99.90
2721;DHT22;1368;49.484;11.112;2023-02-01T00:38:27;5.10;99.90
2721;DHT22;1368;49.484;11.112;2023-02-01T00:40:53;5.20;99.90
2721;DHT22;1368;49.484;11.112;2023-02-01T00:43:19;5.30;99.90
2721;DHT22;1368;49.484;11.112;2023-02-01T00:45:46;5.40;99.90
2721;DHT22;1368;49.484;11.112;2023-02-01T00:48:11;5.30;99.90
2721;DHT22;1368;49.484;11.112;2023-02-01T00:50:41;5.20;99.90
2721;DHT22;1368;49.484;11.112;2023-02-01T00:53:08;5.20;99.90
2721;DHT22;1368;49.484;11.112;2023-02-01T00:55:34;5.20;99.90
2721;DHT22;1368;49.484;11.112;2023-02-01T00:57:59;5.30;99.90
2721;DHT22;1368;49.484;11.112;2023-02-01T01:00:25;5.30;99.90
2721;DHT22;1368;49.484;11.112;2023-02-01T01:02:50;5.40;99.90
2721;DHT22;1368;49.484;11.112;2023-02-01T01:05:16;5.60;99.90
2721;DHT22;1368;49.484;11.112;2023-02-01T01:07:41;5.70;99.90
2721;DHT22;1368;49.484;11.112;2023-02-01T01:10:07;5.60;99.90
2721;DHT22;1368;49.484;11.112;2023-02-01T01:12:33;5.60;99.90
2721;DHT22;1368;49.484;11.112;2023-02-01T01:14:59;5.50;99.90
2721;DHT22;1368;49.484;11.112;2023-02-01T01:17:24;5.60;99.90
2721;DHT22;1368;49.484;11.112;2023-02-01T01:19:50;5.60;99.90
2721;DHT22;1368;49.484;11.112;2023-02-01T01:22:15;5.50;99.90
2721;DHT22;1368;49.484;11.112;2023-02-01T01:24:41;5.60;99.90
2721;DHT22;1368;49.484;11.112;2023-02-01T01:27:06;5.60;99.90
2721;DHT22;1368;49.484;11.112;2023-02-01T01:29:32;5.50;99.90
2721;DHT22;1368;49.484;11.112;2023-02-01T01:31:58;5.40;99.90
2721;DHT22;1368;49.484;11.112;2023-02-01T01:34:23;5.30;99.90
2721;DHT22;1368;49.484;11.112;2023-02-01T01:36:49;5.10;99.90
2721;DHT22;1368;49.484;11.112;2023-02-01T01:39:14;5.10;99.90
2721;DHT22;1368;49.484;11.112;2023-02-01T01:41:40;5.20;99.90
2721;DHT22;1368;49.484;11.112;2023-02-01T01:44:53;5.10;99.90
2721;DHT22;1368;49.484;11.112;2023-02-01T01:46:52;5.10;99.90
2721;DHT22;1368;49.484;11.112;2023-02-01T01:49:21;5.10;99.90
2721;DHT22;1368;49.484;11.112;2023-02-01T01:51:55;5.00;99.90
2721;DHT22;1368;49.484;11.112;2023-02-01T01:54:43;5.10;99.90
2721;DHT22;1368;49.484;11.112;2023-02-01T01:57:14;5.10;99.90
2721;DHT22;1368;49.484;11.112;2023-02-01T01:59:45;5.10;99.90
2721;DHT22;1368;49.484;11.112;2023-02-01T02:02:12;5.00;99.90
2721;DHT22;1368;49.484;11.112;2023-02-01T02:04:38;5.20;99.90
2721;DHT22;1368;49.484;11.112;2023-02-01T02:07:19;5.40;99.90
2721;DHT22;1368;49.484;11.112;2023-02-01T02:09:45;5.30;99.90
2721;DHT22;1368;49.484;11.112;2023-02-01T02:12:11;5.40;99.90
2721;DHT22;1368;49.484;11.112;2023-02-01T02:14:37;5.50;99.90
2721;DHT22;1368;49.484;11.112;2023-02-01T02:22:48;5.60;99.90
2721;DHT22;1368;49.484;11.112;2023-02-01T02:37:33;5.50;99.90
2721;DHT22;1368;49.484;11.112;2023-02-01T02:40:04;5.50;99.90
2721;DHT22;1368;49.484;11.112;2023-02-01T02:45:33;5.50;99.90
2721;DHT22;1368;49.484;11.112;2023-02-01T02:48:36;5.60;99.90
2721;DHT22;1368;49.484;11.112;2023-02-01T02:51:09;5.10;99.90
2721;DHT22;1368;49.484;11.112;2023-02-01T02:56:50;5.00;99.90
2721;DHT22;1368;49.484;11.112;2023-02-01T02:59:38;5.10;99.90
2721;DHT22;1368;49.484;11.112;2023-02-01T03:02:25;5.10;99.90
2721;DHT22;1368;49.484;11.112;2023-02-01T03:05:10;5.00;99.90
2721;DHT22;1368;49.484;11.112;2023-02-01T03:10:32;5.00;99.90
2721;DHT22;1368;49.484;11.112;2023-02-01T03:13:08;5.00;99.90
2721;DHT22;1368;49.484;11.112;2023-02-01T03:18:42;5.20;99.90
2721;DHT22;1368;49.484;11.112;2023-02-01T03:21:16;5.40;99.90
2721;DHT22;1368;49.484;11.112;2023-02-01T03:23:43;5.40;99.90
2721;DHT22;1368;49.484;11.112;2023-02-01T03:26:13;5.30;99.90
2721;DHT22;1368;49.484;11.112;2023-02-01T03:28:48;5.30;99.90
2721;DHT22;1368;49.484;11.112;2023-02-01T03:31:15;5.10;99.90
2721;DHT22;1368;49.484;11.112;2023-02-01T03:33:41;5.00;99.90
2721;DHT22;1368;49.484;11.112;2023-02-01T03:41:40;5.20;99.90
2721;DHT22;1368;49.484;11.112;2023-02-01T03:44:11;5.20;99.90
2721;DHT22;1368;49.484;11.112;2023-02-01T03:46:56;5.30;99.90
2721;DHT22;1368;49.484;11.112;2023-02-01T03:49:44;5.20;99.90
2721;DHT22;1368;49.484;11.112;2023-02-01T03:52:14;5.40;99.90
2721;DHT22;1368;49.484;11.112;2023-02-01T03:54:42;5.50;99.90
2721;DHT22;1368;49.484;11.112;2023-02-01T03:57:12;5.40;99.90
2721;DHT22;1368;49.484;11.112;2023-02-01T03:59:43;5.40;99.90
2721;DHT22;1368;49.484;11.112;2023-02-01T04:02:09;5.30;99.90
2721;DHT22;1368;49.484;11.112;2023-02-01T04:04:35;5.40;99.90
2721;DHT22;1368;49.484;11.112;2023-02-01T04:07:01;5.50;99.90
2721;DHT22;1368;49.484;11.112;2023-02-01T04:09:27;5.40;99.90
2721;DHT22;1368;49.484;11.112;2023-02-01T04:11:53;5.30;99.90
2721;DHT22;1368;49.484;11.112;2023-02-01T04:14:18;5.30;99.90
2721;DHT22;1368;49.484;11.112;2023-02-01T04:16:44;5.30;99.90
2721;DHT22;1368;49.484;11.112;2023-02-01T04:19:10;5.50;99.90
2721;DHT22;1368;49.484;11.112;2023-02-01T04:21:35;5.50;99.90
2721;DHT22;1368;49.484;11.112;2023-02-01T04:24:01;5.40;99.90
2721;DHT22;1368;49.484;11.112;2023-02-01T04:26:26;5.30;99.90
2721;DHT22;1368;49.484;11.112;2023-02-01T04:28:52;5.30;99.90
2721;DHT22;1368;49.484;11.112;2023-02-01T04:31:18;5.30;99.90
2721;DHT22;1368;49.484;11.112;2023-02-01T04:33:51;5.10;99.90
2721;DHT22;1368;49.484;11.112;2023-02-01T04:36:18;5.10;99.90
2721;DHT22;1368;49.484;11.112;2023-02-01T04:38:46;5.30;99.90
2721;DHT22;1368;49.484;11.112;2023-02-01T04:41:11;5.30;99.90
2721;DHT22;1368;49.484;11.112;2023-02-01T04:43:37;5.20;99.90
2721;DHT22;1368;49.484;11.112;2023-02-01T04:46:02;5.20;99.90
2721;DHT22;1368;49.484;11.112;2023-02-01T04:48:28;5.10;99.90
2721;DHT22;1368;49.484;11.112;2023-02-01T04:50:53;5.00;99.90
2721;DHT22;1368;49.484;11.112;2023-02-01T04:53:19;5.10;99.90
2721;DHT22;1368;49.484;11.112;2023-02-01T04:55:44;5.00;99.90
2721;DHT22;1368;49.484;11.112;2023-02-01T04:58:13;4.90;99.90
2721;DHT22;1368;49.484;11.112;2023-02-01T05:00:38;4.90;99.90
2721;DHT22;1368;49.484;11.112;2023-02-01T05:03:04;4.90;99.90
2721;DHT22;1368;49.484;11.112;2023-02-01T05:05:30;5.00;99.90
2721;DHT22;1368;49.484;11.112;2023-02-01T05:07:55;4.90;99.90
2721;DHT22;1368;49.484;11.112;2023-02-01T05:10:21;5.00;99.90
2721;DHT22;1368;49.484;11.112;2023-02-01T05:12:47;5.00;99.90
2721;DHT22;1368;49.484;11.112;2023-02-01T05:15:31;4.90;99.90
2721;DHT22;1368;49.484;11.112;2023-02-01T05:17:57;4.80;99.90
2721;DHT22;1368;49.484;11.112;2023-02-01T05:20:23;4.90;99.90
2721;DHT22;1368;49.484;11.112;2023-02-01T05:22:49;4.80;99.90
2721;DHT22;1368;49.484;11.112;2023-02-01T05:25:15;4.80;99.90
2721;DHT22;1368;49.484;11.112;2023-02-01T05:27:40;4.80;99.90
2721;DHT22;1368;49.484;11.112;2023-02-01T05:30:08;4.70;99.90
2721;DHT22;1368;49.484;11.112;2023-02-01T05:32:34;4.60;99.90
2721;DHT22;1368;49.484;11.112;2023-02-01T05:35:00;4.40;99.90
2721;DHT22;1368;49.484;11.112;2023-02-01T05:37:25;4.10;99.90
2721;DHT22;1368;49.484;11.112;2023-02-01T05:39:51;4.00;99.90
2721;DHT22;1368;49.484;11.112;2023-02-01T05:42:17;3.90;99.90
2721;DHT22;1368;49.484;11.112;2023-02-01T05:44:42;3.90;99.90
2721;DHT22;1368;49.484;11.112;2023-02-01T05:47:08;3.90;99.90
2721;DHT22;1368;49.484;11.112;2023-02-01T05:49:34;3.90;99.90
2721;DHT22;1368;49.484;11.112;2023-02-01T05:51:59;4.20;99.90
2721;DHT22;1368;49.484;11.112;2023-02-01T05:54:25;4.30;99.90
2721;DHT22;1368;49.484;11.112;2023-02-01T05:56:51;4.50;99.90
2721;DHT22;1368;49.484;11.112;2023-02-01T05:59:16;4.70;99.90
2721;DHT22;1368;49.484;11.112;2023-02-01T06:01:42;4.60;99.90
2721;DHT22;1368;49.484;11.112;2023-02-01T06:04:07;4.70;99.90
2721;DHT22;1368;49.484;11.112;2023-02-01T06:06:33;4.80;99.90
2721;DHT22;1368;49.484;11.112;2023-02-01T06:08:59;4.40;99.90
2721;DHT22;1368;49.484;11.112;2023-02-01T06:11:25;4.30;99.90
2721;DHT22;1368;49.484;11.112;2023-02-01T06:13:51;4.30;99.90
2721;DHT22;1368;49.484;11.112;2023-02-01T06:16:17;4.40;99.90
2721;DHT22;1368;49.484;11.112;2023-02-01T06:18:42;4.20;99.90
2721;DHT22;1368;49.484;11.112;2023-02-01T06:21:08;4.40;99.90
2721;DHT22;1368;49.484;11.112;2023-02-01T06:23:33;4.50;99.90
2721;DHT22;1368;49.484;11.112;2023-02-01T06:26:02;4.60;99.90
2721;DHT22;1368;49.484;11.112;2023-02-01T06:28:29;4.50;99.90
2721;DHT22;1368;49.484;11.112;2023-02-01T06:30:55;4.80;99.90
2721;DHT22;1368;49.484;11.112;2023-02-01T06:33:21;4.40;99.90
2721;DHT22;1368;49.484;11.112;2023-02-01T06:35:46;4.40;99.90
2721;DHT22;1368;49.484;11.112;2023-02-01T06:38:13;4.40;99.90
2721;DHT22;1368;49.484;11.112;2023-02-01T06:40:40;4.40;99.90
2721;DHT22;1368;49.484;11.112;2023-02-01T06:43:07;4.50;99.90
2721;DHT22;1368;49.484;11.112;2023-02-01T06:45:33;4.50;99.90
2721;DHT22;1368;49.484;11.112;2023-02-01T06:47:59;4.60;99.90
2721;DHT22;1368;49.484;11.112;2023-02-01T06:50:27;4.80;99.90
2721;DHT22;1368;49.484;11.112;2023-02-01T06:52:53;4.80;99.90
2721;DHT22;1368;49.484;11.112;2023-02-01T06:55:18;4.80;99.90
2721;DHT22;1368;49.484;11.112;2023-02-01T06:57:44;4.90;99.90
2721;DHT22;1368;49.484;11.112;2023-02-01T07:00:10;4.80;99.90
2721;DHT22;1368;49.484;11.112;2023-02-01T07:02:35;4.70;99.90
2721;DHT22;1368;49.484;11.112;2023-02-01T07:05:02;4.80;99.90
2721;DHT22;1368;49.484;11.112;2023-02-01T07:07:27;4.80;99.90
2721;DHT22;1368;49.484;11.112;2023-02-01T07:09:53;4.90;99.90
2721;DHT22;1368;49.484;11.112;2023-02-01T07:12:19;5.00;99.90
2721;DHT22;1368;49.484;11.112;2023-02-01T07:14:44;5.00;99.90
2721;DHT22;1368;49.484;11.112;2023-02-01T07:17:10;5.10;99.90
2721;DHT22;1368;49.484;11.112;2023-02-01T07:19:36;5.20;99.90
2721;DHT22;1368;49.484;11.112;2023-02-01T07:22:01;5.30;99.90
2721;DHT22;1368;49.484;11.112;2023-02-01T07:24:27;5.30;99.90
2721;DHT22;1368;49.484;11.112;2023-02-01T07:26:52;5.20;99.90
2721;DHT22;1368;49.484;11.112;2023-02-01T07:29:18;5.30;99.90
2721;DHT22;1368;49.484;11.112;2023-02-01T07:31:44;5.20;99.90
2721;DHT22;1368;49.484;11.112;2023-02-01T07:34:09;5.00;99.90
2721;DHT22;1368;49.484;11.112;2023-02-01T07:36:35;5.00;99.90
2721;DHT22;1368;49.484;11.112;2023-02-01T07:39:02;5.00;99.90
2721;DHT22;1368;49.484;11.112;2023-02-01T07:41:28;5.10;99.90
2721;DHT22;1368;49.484;11.112;2023-02-01T07:43:54;5.10;99.90
2721;DHT22;1368;49.484;11.112;2023-02-01T07:46:20;5.10;99.90
2721;DHT22;1368;49.484;11.112;2023-02-01T07:48:46;5.10;99.90
2721;DHT22;1368;49.484;11.112;2023-02-01T07:51:13;5.20;99.90
2721;DHT22;1368;49.484;11.112;2023-02-01T07:53:40;5.50;99.90
2721;DHT22;1368;49.484;11.112;2023-02-01T07:56:17;5.60;99.90
2721;DHT22;1368;49.484;11.112;2023-02-01T07:58:46;5.50;99.90
2721;DHT22;1368;49.484;11.112;2023-02-01T08:01:20;5.60;99.90
2721;DHT22;1368;49.484;11.112;2023-02-01T08:03:53;5.60;99.90
2721;DHT22;1368;49.484;11.112;2023-02-01T08:06:20;5.70;99.90
2721;DHT22;1368;49.484;11.112;2023-02-01T08:08:47;5.60;99.90
2721;DHT22;1368;49.484;11.112;2023-02-01T08:11:13;5.50;99.90
2721;DHT22;1368;49.484;11.112;2023-02-01T08:13:39;5.40;99.90
2721;DHT22;1368;49.484;11.112;2023-02-01T08:16:06;5.40;99.90
2721;DHT22;1368;49.484;11.112;2023-02-01T08:18:32;5.50;99.90
2721;DHT22;1368;49.484;11.112;2023-02-01T08:21:06;5.50;99.90
2721;DHT22;1368;49.484;11.112;2023-02-01T08:23:33;5.50;99.90
2721;DHT22;1368;49.484;11.112;2023-02-01T08:26:10;5.40;99.90
2721;DHT22;1368;49.484;11.112;2023-02-01T08:28:38;5.50;99.90
2721;DHT22;1368;49.484;11.112;2023-02-01T08:31:13;5.60;99.90
2721;DHT22;1368;49.484;11.112;2023-02-01T08:33:43;5.70;99.90
2721;DHT22;1368;49.484;11.112;2023-02-01T08:36:10;6.00;99.90
2721;DHT22;1368;49.484;11.112;2023-02-01T08:38:37;6.10;99.90
2721;DHT22;1368;49.484;11.112;2023-02-01T08:41:09;6.20;99.90
2721;DHT22;1368;49.484;11.112;2023-02-01T08:43:35;6.20;99.90
2721;DHT22;1368;49.484;11.112;2023-02-01T08:46:02;6.00;99.90
2721;DHT22;1368;49.484;11.112;2023-02-01T08:48:28;5.90;99.90
2721;DHT22;1368;49.484;11.112;2023-02-01T08:50:54;5.90;99.90
2721;DHT22;1368;49.484;11.112;2023-02-01T08:53:19;6.00;99.90
2721;DHT22;1368;49.484;11.112;2023-02-01T08:55:48;6.20;99.90
2721;DHT22;1368;49.484;11.112;2023-02-01T08:58:14;6.20;99.90
2721;DHT22;1368;49.484;11.112;2023-02-01T09:00:42;6.50;99.90
2721;DHT22;1368;49.484;11.112;2023-02-01T09:03:10;6.60;99.90
2721;DHT22;1368;49.484;11.112;2023-02-01T09:05:36;6.50;99.90
2721;DHT22;1368;49.484;11.112;2023-02-01T09:08:02;6.40;99.90
2721;DHT22;1368;49.484;11.112;2023-02-01T09:10:27;6.20;99.90
2721;DHT22;1368;49.484;11.112;2023-02-01T09:12:53;6.30;99.90
2721;DHT22;1368;49.484;11.112;2023-02-01T09:15:18;6.20;99.90
2721;DHT22;1368;49.484;11.112;2023-02-01T09:17:44;6.00;99.90
2721;DHT22;1368;49.484;11.112;2023-02-01T09:20:10;5.80;99.90
2721;DHT22;1368;49.484;11.112;2023-02-01T09:22:35;5.90;99.90
2721;DHT22;1368;49.484;11.112;2023-02-01T09:25:01;5.90;99.90
2721;DHT22;1368;49.484;11.112;2023-02-01T09:27:27;5.80;99.90
2721;DHT22;1368;49.484;11.112;2023-02-01T09:29:52;5.70;99.90
2721;DHT22;1368;49.484;11.112;2023-02-01T09:32:20;5.60;99.90
2721;DHT22;1368;49.484;11.112;2023-02-01T09:34:46;5.60;99.90
2721;DHT22;1368;49.484;11.112;2023-02-01T09:37:11;5.60;99.90
2721;DHT22;1368;49.484;11.112;2023-02-01T09:39:37;5.50;99.90
2721;DHT22;1368;49.484;11.112;2023-02-01T09:42:14;5.30;99.90
2721;DHT22;1368;49.484;11.112;2023-02-01T09:47:21;5.10;99.90
2721;DHT22;1368;49.484;11.112;2023-02-01T09:49:59;5.20;99.90
2721;DHT22;1368;49.484;11.112;2023-02-01T09:52:32;5.20;99.90
2721;DHT22;1368;49.484;11.112;2023-02-01T09:55:04;5.30;99.90
2721;DHT22;1368;49.484;11.112;2023-02-01T10:00:20;5.80;99.90
2721;DHT22;1368;49.484;11.112;2023-02-01T10:02:48;6.00;99.90
2721;DHT22;1368;49.484;11.112;2023-02-01T10:05:18;6.20;99.90
2721;DHT22;1368;49.484;11.112;2023-02-01T10:08:01;6.20;99.90
2721;DHT22;1368;49.484;11.112;2023-02-01T10:10:44;6.30;99.90
2721;DHT22;1368;49.484;11.112;2023-02-01T10:13:34;6.40;99.90
2721;DHT22;1368;49.484;11.112;2023-02-01T10:19:22;6.20;99.90
2721;DHT22;1368;49.484;11.112;2023-02-01T10:22:12;6.50;99.90
2721;DHT22;1368;49.484;11.112;2023-02-01T10:29:41;6.30;99.90
2721;DHT22;1368;49.484;11.112;2023-02-01T10:32:16;6.20;99.90
2721;DHT22;1368;49.484;11.112;2023-02-01T10:34:44;6.30;99.90
2721;DHT22;1368;49.484;11.112;2023-02-01T10:37:33;6.40;99.90
2721;DHT22;1368;49.484;11.112;2023-02-01T10:40:20;6.40;99.90
2721;DHT22;1368;49.484;11.112;2023-02-01T10:42:48;6.50;99.90
2721;DHT22;1368;49.484;11.112;2023-02-01T10:45:20;6.60;99.90
2721;DHT22;1368;49.484;11.112;2023-02-01T10:47:50;6.50;99.90
2721;DHT22;1368;49.484;11.112;2023-02-01T10:53:24;6.50;99.90
2721;DHT22;1368;49.484;11.112;2023-02-01T10:55:54;6.20;99.90
2721;DHT22;1368;49.484;11.112;2023-02-01T10:58:29;6.10;99.90
2721;DHT22;1368;49.484;11.112;2023-02-01T11:00:59;6.10;99.90
2721;DHT22;1368;49.484;11.112;2023-02-01T11:05:55;6.40;99.90
2721;DHT22;1368;49.484;11.112;2023-02-01T11:08:21;6.60;99.90
2721;DHT22;1368;49.484;11.112;2023-02-01T11:10:47;6.30;99.90
2721;DHT22;1368;49.484;11.112;2023-02-01T11:13:17;5.60;99.90
2721;DHT22;1368;49.484;11.112;2023-02-01T11:15:47;5.30;99.90
2721;DHT22;1368;49.484;11.112;2023-02-01T11:18:24;5.30;99.90
2721;DHT22;1368;49.484;11.112;2023-02-01T11:20:53;5.30;99.90
2721;DHT22;1368;49.484;11.112;2023-02-01T11:23:23;5.30;99.90
2721;DHT22;1368;49.484;11.112;2023-02-01T11:25:54;5.50;99.90
2721;DHT22;1368;49.484;11.112;2023-02-01T11:28:24;5.70;99.90
2721;DHT22;1368;49.484;11.112;2023-02-01T11:30:51;5.50;99.90
2721;DHT22;1368;49.484;11.112;2023-02-01T11:33:20;5.60;99.90
2721;DHT22;1368;49.484;11.112;2023-02-01T11:35:51;5.60;99.90
2721;DHT22;1368;49.484;11.112;2023-02-01T11:38:26;5.60;99.90
2721;DHT22;1368;49.484;11.112;2023-02-01T11:40:52;5.70;99.90
2721;DHT22;1368;49.484;11.112;2023-02-01T11:43:28;6.00;99.90
2721;DHT22;1368;49.484;11.112;2023-02-01T11:46:01;6.20;99.90
2721;DHT22;1368;49.484;11.112;2023-02-01T11:48:30;6.10;99.90
2721;DHT22;1368;49.484;11.112;2023-02-01T12:02:16;6.30;99.90
2721;DHT22;1368;49.484;11.112;2023-02-01T12:07:42;6.50;99.90
2721;DHT22;1368;49.484;11.112;2023-02-01T12:16:06;6.20;99.90
2721;DHT22;1368;49.484;11.112;2023-02-01T12:26:20;6.10;99.90
2721;DHT22;1368;49.484;11.112;2023-02-01T12:37:11;6.40;99.90
2721;DHT22;1368;49.484;11.112;2023-02-01T12:42:31;6.30;99.90
2721;DHT22;1368;49.484;11.112;2023-02-01T12:47:56;6.30;99.90
2721;DHT22;1368;49.484;11.112;2023-02-01T12:50:41;6.10;99.90
2721;DHT22;1368;49.484;11.112;2023-02-01T12:53:18;5.90;99.90
2721;DHT22;1368;49.484;11.112;2023-02-01T12:55:58;6.20;99.90
2721;DHT22;1368;49.484;11.112;2023-02-01T12:58:42;6.10;99.90
2721;DHT22;1368;49.484;11.112;2023-02-01T13:01:14;6.00;99.90
2721;DHT22;1368;49.484;11.112;2023-02-01T13:04:08;6.00;99.90
2721;DHT22;1368;49.484;11.112;2023-02-01T13:07:17;6.20;99.90
2721;DHT22;1368;49.484;11.112;2023-02-01T13:12:20;6.50;99.90
2721;DHT22;1368;49.484;11.112;2023-02-01T13:17:22;6.40;99.90
2721;DHT22;1368;49.484;11.112;2023-02-01T13:22:42;6.30;99.90
2721;DHT22;1368;49.484;11.112;2023-02-01T13:27:49;6.00;99.90
2721;DHT22;1368;49.484;11.112;2023-02-01T13:30:23;5.60;99.90
2721;DHT22;1368;49.484;11.112;2023-02-01T13:35:48;5.10;99.90
2721;DHT22;1368;49.484;11.112;2023-02-01T13:43:35;5.00;99.90
2721;DHT22;1368;49.484;11.112;2023-02-01T13:46:09;5.00;99.90
2721;DHT22;1368;49.484;11.112;2023-02-01T13:48:55;5.20;99.90
2721;DHT22;1368;49.484;11.112;2023-02-01T13:53:57;5.70;99.90
2721;DHT22;1368;49.484;11.112;2023-02-01T13:56:23;5.70;99.90
2721;DHT22;1368;49.484;11.112;2023-02-01T13:58:50;5.80;99.90
2721;DHT22;1368;49.484;11.112;2023-02-01T14:16:43;6.20;99.90
2721;DHT22;1368;49.484;11.112;2023-02-01T14:19:26;6.30;99.90
2721;DHT22;1368;49.484;11.112;2023-02-01T14:21:59;6.30;99.90
2721;DHT22;1368;49.484;11.112;2023-02-01T14:24:31;6.30;99.90
2721;DHT22;1368;49.484;11.112;2023-02-01T14:27:07;6.30;99.90
2721;DHT22;1368;49.484;11.112;2023-02-01T14:29:41;6.30;99.90
2721;DHT22;1368;49.484;11.112;2023-02-01T14:32:21;6.30;99.90
2721;DHT22;1368;49.484;11.112;2023-02-01T14:39:50;6.30;99.90
2721;DHT22;1368;49.484;11.112;2023-02-01T14:42:33;6.40;99.90
2721;DHT22;1368;49.484;11.112;2023-02-01T14:55:40;6.50;99.90
2721;DHT22;1368;49.484;11.112;2023-02-01T14:58:43;6.40;99.90
2721;DHT22;1368;49.484;11.112;2023-02-01T15:01:30;6.40;99.90
2721;DHT22;1368;49.484;11.112;2023-02-01T15:04:12;6.40;99.90
2721;DHT22;1368;49.484;11.112;2023-02-01T15:09:56;6.40;99.90
2721;DHT22;1368;49.484;11.112;2023-02-01T15:14:45;6.30;99.90
2721;DHT22;1368;49.484;11.112;2023-02-01T15:17:27;6.30;99.90
2721;DHT22;1368;49.484;11.112;2023-02-01T15:20:17;6.30;99.90
2721;DHT22;1368;49.484;11.112;2023-02-01T15:22:52;6.10;99.90
2721;DHT22;1368;49.484;11.112;2023-02-01T15:27:51;5.90;99.90
2721;DHT22;1368;49.484;11.112;2023-02-01T15:30:23;6.10;99.90
2721;DHT22;1368;49.484;11.112;2023-02-01T15:32:51;6.10;99.90
2721;DHT22;1368;49.484;11.112;2023-02-01T15:35:37;6.30;99.90
2721;DHT22;1368;49.484;11.112;2023-02-01T15:40:58;6.20;99.90
2721;DHT22;1368;49.484;11.112;2023-02-01T15:43:26;6.10;99.90
2721;DHT22;1368;49.484;11.112;2023-02-01T15:45:55;6.00;99.90
2721;DHT22;1368;49.484;11.112;2023-02-01T15:48:25;6.00;99.90
2721;DHT22;1368;49.484;11.112;2023-02-01T15:50:54;5.90;99.90
2721;DHT22;1368;49.484;11.112;2023-02-01T15:53:23;5.90;99.90
2721;DHT22;1368;49.484;11.112;2023-02-01T15:55:55;6.00;99.90
2721;DHT22;1368;49.484;11.112;2023-02-01T15:58:23;6.10;99.90
2721;DHT22;1368;49.484;11.112;2023-02-01T16:01:01;6.30;99.90
2721;DHT22;1368;49.484;11.112;2023-02-01T16:03:44;6.10;99.90
2721;DHT22;1368;49.484;11.112;2023-02-01T16:06:12;6.10;99.90
2721;DHT22;1368;49.484;11.112;2023-02-01T16:11:27;6.10;99.90
2721;DHT22;1368;49.484;11.112;2023-02-01T16:13:55;6.20;99.90
2721;DHT22;1368;49.484;11.112;2023-02-01T16:16:21;6.00;99.90
2721;DHT22;1368;49.484;11.112;2023-02-01T16:18:46;6.00;99.90
2721;DHT22;1368;49.484;11.112;2023-02-01T16:21:12;6.10;99.90
2721;DHT22;1368;49.484;11.112;2023-02-01T16:23:38;5.90;99.90
2721;DHT22;1368;49.484;11.112;2023-02-01T16:26:04;5.90;99.90
2721;DHT22;1368;49.484;11.112;2023-02-01T16:28:31;6.00;99.90
2721;DHT22;1368;49.484;11.112;2023-02-01T16:30:56;5.90;99.90
2721;DHT22;1368;49.484;11.112;2023-02-01T16:33:23;6.00;99.90
2721;DHT22;1368;49.484;11.112;2023-02-01T16:35:49;5.90;99.90
2721;DHT22;1368;49.484;11.112;2023-02-01T16:38:17;6.00;99.90
2721;DHT22;1368;49.484;11.112;2023-02-01T16:40:45;5.90;99.90
2721;DHT22;1368;49.484;11.112;2023-02-01T16:45:38;5.80;99.90
2721;DHT22;1368;49.484;11.112;2023-02-01T16:48:06;5.90;99.90
2721;DHT22;1368;49.484;11.112;2023-02-01T16:50:33;5.90;99.90
2721;DHT22;1368;49.484;11.112;2023-02-01T16:52:58;5.80;99.90
2721;DHT22;1368;49.484;11.112;2023-02-01T16:55:24;5.80;99.90
2721;DHT22;1368;49.484;11.112;2023-02-01T16:57:51;5.90;99.90
2721;DHT22;1368;49.484;11.112;2023-02-01T17:00:17;5.90;99.90
2721;DHT22;1368;49.484;11.112;2023-02-01T17:02:43;6.00;99.90
2721;DHT22;1368;49.484;11.112;2023-02-01T17:05:11;6.00;99.90
2721;DHT22;1368;49.484;11.112;2023-02-01T17:07:38;5.70;99.90
2721;DHT22;1368;49.484;11.112;2023-02-01T17:10:05;5.80;99.90
2721;DHT22;1368;49.484;11.112;2023-02-01T17:12:32;5.90;99.90
2721;DHT22;1368;49.484;11.112;2023-02-01T17:15:01;6.00;99.90
2721;DHT22;1368;49.484;11.112;2023-02-01T17:17:33;6.10;99.90
2721;DHT22;1368;49.484;11.112;2023-02-01T17:20:00;6.50;99.90
2721;DHT22;1368;49.484;11.112;2023-02-01T17:22:25;6.00;99.90
2721;DHT22;1368;49.484;11.112;2023-02-01T17:24:51;6.00;99.90
2721;DHT22;1368;49.484;11.112;2023-02-01T17:27:17;6.00;99.90
2721;DHT22;1368;49.484;11.112;2023-02-01T17:29:43;6.10;99.90
2721;DHT22;1368;49.484;11.112;2023-02-01T17:32:22;6.10;99.90
2721;DHT22;1368;49.484;11.112;2023-02-01T17:34:49;6.20;99.90
2721;DHT22;1368;49.484;11.112;2023-02-01T17:37:33;6.10;99.90
2721;DHT22;1368;49.484;11.112;2023-02-01T17:40:00;6.10;99.90
2721;DHT22;1368;49.484;11.112;2023-02-01T17:42:28;6.00;99.90
2721;DHT22;1368;49.484;11.112;2023-02-01T17:44:56;5.90;99.90
2721;DHT22;1368;49.484;11.112;2023-02-01T17:47:22;6.00;99.90
2721;DHT22;1368;49.484;11.112;2023-02-01T17:49:48;5.90;99.90
2721;DHT22;1368;49.484;11.112;2023-02-01T17:52:20;6.00;99.90
2721;DHT22;1368;49.484;11.112;2023-02-01T17:54:47;6.10;99.90
2721;DHT22;1368;49.484;11.112;2023-02-01T17:57:15;6.40;99.90
2721;DHT22;1368;49.484;11.112;2023-02-01T17:59:42;6.80;99.90
2721;DHT22;1368;49.484;11.112;2023-02-01T18:02:19;6.20;99.90
2721;DHT22;1368;49.484;11.112;2023-02-01T18:04:45;6.10;99.90
2721;DHT22;1368;49.484;11.112;2023-02-01T18:07:11;6.10;99.90
2721;DHT22;1368;49.484;11.112;2023-02-01T18:09:37;6.00;99.90
2721;DHT22;1368;49.484;11.112;2023-02-01T18:12:03;5.90;99.90
2721;DHT22;1368;49.484;11.112;2023-02-01T18:14:30;5.60;99.90
2721;DHT22;1368;49.484;11.112;2023-02-01T18:16:55;5.60;99.90
2721;DHT22;1368;49.484;11.112;2023-02-01T18:19:21;5.60;99.90
2721;DHT22;1368;49.484;11.112;2023-02-01T18:21:46;5.70;99.90
2721;DHT22;1368;49.484;11.112;2023-02-01T18:24:13;5.70;99.90
2721;DHT22;1368;49.484;11.112;2023-02-01T18:26:39;5.80;99.90
2721;DHT22;1368;49.484;11.112;2023-02-01T18:29:05;6.00;99.90
2721;DHT22;1368;49.484;11.112;2023-02-01T18:31:31;5.90;99.90
2721;DHT22;1368;49.484;11.112;2023-02-01T18:33:58;6.10;99.90
2721;DHT22;1368;49.484;11.112;2023-02-01T18:36:25;6.10;99.90
2721;DHT22;1368;49.484;11.112;2023-02-01T18:38:51;6.00;99.90
2721;DHT22;1368;49.484;11.112;2023-02-01T18:41:19;6.10;99.90
2721;DHT22;1368;49.484;11.112;2023-02-01T18:43:46;6.10;99.90
2721;DHT22;1368;49.484;11.112;2023-02-01T18:46:12;6.30;99.90
2721;DHT22;1368;49.484;11.112;2023-02-01T18:48:39;6.00;99.90
2721;DHT22;1368;49.484;11.112;2023-02-01T18:51:05;6.10;99.90
2721;DHT22;1368;49.484;11.112;2023-02-01T18:53:31;6.50;99.90
2721;DHT22;1368;49.484;11.112;2023-02-01T18:55:57;6.10;99.90
2721;DHT22;1368;49.484;11.112;2023-02-01T18:58:24;6.20;99.90
2721;DHT22;1368;49.484;11.112;2023-02-01T19:00:51;6.30;99.90